createdAt,value
2022-08-01T00:00:05.079Z,0.63
2022-08-01T00:02:32.245Z,0.52
2022-08-01T00:04:59.095Z,0.70
2022-08-01T00:07:25.676Z,0.60
2022-08-01T00:09:52.398Z,0.77
2022-08-01T00:12:19.030Z,0.68
2022-08-01T00:14:45.652Z,0.60
2022-08-01T00:17:12.305Z,0.70
2022-08-01T00:19:38.904Z,0.80
2022-08-01T00:22:05.769Z,0.55
2022-08-01T00:24:32.646Z,0.60
2022-08-01T00:26:59.218Z,0.60
2022-08-01T00:30:04.725Z,0.68
2022-08-01T00:32:12.439Z,1.90
2022-08-01T00:34:39.128Z,0.90
2022-08-01T00:37:05.689Z,1.48
2022-08-01T00:39:34.106Z,0.80
2022-08-01T00:42:07.482Z,0.77
2022-08-01T00:44:34.669Z,0.50
2022-08-01T00:47:01.403Z,0.98
2022-08-01T00:49:28.755Z,0.60
2022-08-01T00:51:56.141Z,0.65
2022-08-01T00:54:24.983Z,0.60
2022-08-01T00:56:51.673Z,1.10
2022-08-01T00:59:19.095Z,0.80
2022-08-01T01:01:50.065Z,1.15
2022-08-01T01:09:33.993Z,1.15
2022-08-01T01:17:50.604Z,1.88
2022-08-01T01:20:19.810Z,1.38
2022-08-01T01:22:58.779Z,1.10
2022-08-01T01:30:50.039Z,1.90
2022-08-01T01:33:20.247Z,1.10
2022-08-01T01:35:50.138Z,0.82
2022-08-01T01:38:21.369Z,0.95
2022-08-01T01:40:49.963Z,1.45
2022-08-01T01:43:17.692Z,1.00
2022-08-01T01:45:46.495Z,1.25
2022-08-01T01:48:16.387Z,0.73
2022-08-01T01:50:45.810Z,0.80
2022-08-01T01:53:15.201Z,1.15
2022-08-01T01:55:48.926Z,0.98
2022-08-01T01:58:18.532Z,0.93
2022-08-01T02:00:47.711Z,0.77
2022-08-01T02:03:15.878Z,0.93
2022-08-01T02:05:43.615Z,0.90
2022-08-01T02:08:12.694Z,1.02
2022-08-01T02:10:41.114Z,0.82
2022-08-01T02:13:08.378Z,0.80
2022-08-01T02:15:39.322Z,0.70
2022-08-01T02:18:26.373Z,1.45
2022-08-01T02:20:55.451Z,1.33
2022-08-01T02:23:25.415Z,0.85
2022-08-01T02:26:10.938Z,1.20
2022-08-01T02:28:46.753Z,0.80
2022-08-01T02:31:17.672Z,0.80
2022-08-01T02:33:53.442Z,1.08
2022-08-01T02:36:28.851Z,0.85
2022-08-01T02:39:02.655Z,1.10
2022-08-01T02:41:31.236Z,0.60
2022-08-01T02:44:02.692Z,0.88
2022-08-01T02:46:36.174Z,1.20
2022-08-01T02:49:05.135Z,1.05
2022-08-01T02:51:33.301Z,0.90
2022-08-01T02:54:02.683Z,0.90
2022-08-01T02:56:35.895Z,1.45
2022-08-01T02:59:06.340Z,0.80
2022-08-01T03:01:36.172Z,1.00
2022-08-01T03:04:06.150Z,1.17
2022-08-01T03:09:03.843Z,1.38
2022-08-01T03:11:31.958Z,1.13
2022-08-01T03:14:02.773Z,0.73
2022-08-01T03:16:32.478Z,1.98
2022-08-01T03:21:27.298Z,1.35
2022-08-01T03:23:58.136Z,1.23
2022-08-01T03:26:29.686Z,1.00
2022-08-01T03:29:07.750Z,1.00
2022-08-01T03:31:37.170Z,1.17
2022-08-01T03:34:05.982Z,1.02
2022-08-01T03:36:38.514Z,0.90
2022-08-01T03:39:07.271Z,0.95
2022-08-01T03:41:40.828Z,0.85
2022-08-01T03:44:14.379Z,0.60
2022-08-01T03:46:47.210Z,0.80
2022-08-01T03:49:22.611Z,1.00
2022-08-01T03:51:51.938Z,1.10
2022-08-01T03:54:24.584Z,1.15
2022-08-01T03:56:52.814Z,0.82
2022-08-01T03:59:21.536Z,1.55
2022-08-01T04:01:49.127Z,1.20
2022-08-01T04:04:15.982Z,1.33
2022-08-01T04:06:44.834Z,0.90
2022-08-01T04:09:13.789Z,0.80
2022-08-01T04:11:42.072Z,1.02
2022-08-01T04:14:09.404Z,1.67
2022-08-01T04:16:36.242Z,1.08
2022-08-01T04:19:03.753Z,1.00
2022-08-01T04:21:33.564Z,1.40
2022-08-01T04:26:33.292Z,0.90
2022-08-01T04:29:03.621Z,1.02
2022-08-01T04:31:31.540Z,1.23
2022-08-01T04:34:02.120Z,0.85
2022-08-01T04:36:31.345Z,1.60
2022-08-01T04:39:01.763Z,2.33
2022-08-01T04:41:30.882Z,0.80
2022-08-01T04:44:00.364Z,1.00
2022-08-01T04:46:29.665Z,1.35
2022-08-01T04:48:57.131Z,0.82
2022-08-01T04:51:23.851Z,1.52
2022-08-01T04:53:52.085Z,1.00
2022-08-01T04:56:21.829Z,0.82
2022-08-01T05:01:15.141Z,1.02
2022-08-01T05:03:41.830Z,1.33
2022-08-01T05:06:08.643Z,1.13
2022-08-01T05:08:37.245Z,1.20
2022-08-01T05:11:04.677Z,0.88
2022-08-01T05:13:31.599Z,1.13
2022-08-01T05:15:58.258Z,1.58
2022-08-01T05:18:28.368Z,1.10
2022-08-01T05:20:55.779Z,1.20
2022-08-01T05:23:42.250Z,1.00
2022-08-01T05:26:09.349Z,0.75
2022-08-01T05:28:36.309Z,1.40
2022-08-01T05:31:04.016Z,1.30
2022-08-01T05:33:30.653Z,1.00
2022-08-01T05:35:57.265Z,1.30
2022-08-01T05:38:23.871Z,1.20
2022-08-01T05:40:50.516Z,0.93
2022-08-01T05:43:17.575Z,1.75
2022-08-01T05:45:45.527Z,1.15
2022-08-01T05:48:12.136Z,1.17
2022-08-01T05:50:38.919Z,1.48
2022-08-01T05:53:05.559Z,1.20
2022-08-01T05:55:32.133Z,1.10
2022-08-01T05:57:58.754Z,1.10
2022-08-01T06:00:25.354Z,0.90
2022-08-01T06:02:52.168Z,1.27
2022-08-01T06:05:18.784Z,1.23
2022-08-01T06:07:45.364Z,1.17
2022-08-01T06:10:12.264Z,1.67
2022-08-01T06:12:38.938Z,0.98
2022-08-01T06:15:07.087Z,1.25
2022-08-01T06:17:33.804Z,1.60
2022-08-01T06:20:00.835Z,1.50
2022-08-01T06:22:27.620Z,1.65
2022-08-01T06:24:54.607Z,1.10
2022-08-01T06:27:21.909Z,1.10
2022-08-01T06:29:51.193Z,1.00
2022-08-01T06:32:26.424Z,1.15
2022-08-01T06:34:55.640Z,1.00
2022-08-01T06:37:22.699Z,0.98
2022-08-01T06:39:50.618Z,1.20
2022-08-01T06:42:17.817Z,1.35
2022-08-01T06:44:44.406Z,1.65
2022-08-01T06:47:11.087Z,0.68
2022-08-01T06:49:37.992Z,1.13
2022-08-01T06:52:05.526Z,1.10
2022-08-01T06:54:32.354Z,1.95
2022-08-01T06:56:58.968Z,1.23
2022-08-01T06:59:25.720Z,1.33
2022-08-01T07:01:52.330Z,1.27
2022-08-01T07:04:18.966Z,0.82
2022-08-01T07:06:45.600Z,1.05
2022-08-01T07:09:14.372Z,0.85
2022-08-01T07:11:41.747Z,1.00
2022-08-01T07:14:08.403Z,1.15
2022-08-01T07:16:35.390Z,1.13
2022-08-01T07:19:02.019Z,0.60
2022-08-01T07:21:38.475Z,0.77
2022-08-01T07:24:13.397Z,1.00
2022-08-01T07:26:53.197Z,0.70
2022-08-01T07:29:23.980Z,0.88
2022-08-01T07:31:50.994Z,0.88
2022-08-01T07:34:17.602Z,0.73
2022-08-01T07:36:44.210Z,1.27
2022-08-01T07:39:10.858Z,1.30
2022-08-01T07:41:52.964Z,0.75
2022-08-01T07:44:24.114Z,1.45
2022-08-01T07:46:54.949Z,1.05
2022-08-01T07:49:22.818Z,0.70
2022-08-01T07:52:02.360Z,0.68
2022-08-01T07:54:33.273Z,1.17
2022-08-01T07:57:00.854Z,0.98
2022-08-01T07:59:27.432Z,1.08
2022-08-01T08:01:54.148Z,0.70
2022-08-01T08:04:20.855Z,0.93
2022-08-01T08:06:48.697Z,1.17
2022-08-01T08:09:16.390Z,1.02
2022-08-01T08:11:47.726Z,0.90
2022-08-01T08:14:15.575Z,0.60
2022-08-01T08:16:43.734Z,0.60
2022-08-01T08:19:10.785Z,1.35
2022-08-01T08:21:38.850Z,0.75
2022-08-01T08:24:26.800Z,0.77
2022-08-01T08:26:57.637Z,0.75
2022-08-01T08:29:25.707Z,1.17
2022-08-01T08:31:54.335Z,0.73
2022-08-01T08:34:20.968Z,1.67
2022-08-01T08:36:49.859Z,0.55
2022-08-01T08:39:19.880Z,0.93
2022-08-01T08:41:49.730Z,0.75
2022-08-01T08:44:18.083Z,0.90
2022-08-01T08:46:46.832Z,0.40
2022-08-01T08:49:18.715Z,0.70
2022-08-01T08:51:49.658Z,0.73
2022-08-01T08:54:17.571Z,0.65
2022-08-01T08:56:45.272Z,1.33
2022-08-01T08:59:14.434Z,1.00
2022-08-01T09:01:42.513Z,0.80
2022-08-01T09:04:09.577Z,0.80
2022-08-01T09:06:36.469Z,0.88
2022-08-01T09:09:04.398Z,0.60
2022-08-01T09:11:31.378Z,1.10
2022-08-01T09:14:23.372Z,0.55
2022-08-01T09:17:01.803Z,0.70
2022-08-01T09:19:40.500Z,1.38
2022-08-01T09:22:10.870Z,1.17
2022-08-01T09:24:39.130Z,0.95
2022-08-01T09:27:25.016Z,1.10
2022-08-01T09:30:00.175Z,0.70
2022-08-01T09:32:34.236Z,0.68
2022-08-01T09:35:24.123Z,1.15
2022-08-01T09:40:54.938Z,2.33
2022-08-01T09:43:25.105Z,2.00
2022-08-01T09:48:22.547Z,1.90
2022-08-01T09:50:54.927Z,1.40
2022-08-01T09:53:29.746Z,1.67
2022-08-01T09:56:10.578Z,1.95
2022-08-01T09:59:00.416Z,2.25
2022-08-01T10:01:37.143Z,2.17
2022-08-01T10:04:09.811Z,1.98
2022-08-01T10:06:38.446Z,1.77
2022-08-01T10:09:05.876Z,2.15
2022-08-01T10:11:36.491Z,1.90
2022-08-01T10:14:03.946Z,1.63
2022-08-01T10:16:31.718Z,2.33
2022-08-01T10:18:58.905Z,2.05
2022-08-01T10:21:46.109Z,1.65
2022-08-01T10:24:18.852Z,1.88
2022-08-01T10:26:49.727Z,2.25
2022-08-01T10:29:45.249Z,2.88
2022-08-01T10:32:07.700Z,2.35
2022-08-01T10:34:35.794Z,1.90
2022-08-01T10:37:03.940Z,2.33
2022-08-01T10:39:33.982Z,2.45
2022-08-01T10:42:01.495Z,2.10
2022-08-01T10:44:30.316Z,2.35
2022-08-01T10:47:05.395Z,2.47
2022-08-01T10:49:48.548Z,2.25
2022-08-01T10:52:17.067Z,2.63
2022-08-01T10:54:52.436Z,2.60
2022-08-01T10:57:19.665Z,1.42
2022-08-01T11:00:01.178Z,2.80
2022-08-01T11:02:32.064Z,2.15
2022-08-01T11:05:04.427Z,2.53
2022-08-01T11:07:46.949Z,1.95
2022-08-01T11:12:53.809Z,0.77
2022-08-01T11:15:29.139Z,1.42
2022-08-01T11:18:00.465Z,1.08
2022-08-01T11:20:34.650Z,1.10
2022-08-01T11:28:32.306Z,0.95
2022-08-01T11:41:39.183Z,1.08
2022-08-01T11:44:14.844Z,1.10
2022-08-01T11:49:29.645Z,0.73
2022-08-01T11:52:04.210Z,1.65
2022-08-01T11:54:35.052Z,1.25
2022-08-01T11:57:09.705Z,1.02
2022-08-01T11:59:41.026Z,1.27
2022-08-01T12:07:35.411Z,1.00
2022-08-01T12:10:09.486Z,1.10
2022-08-01T12:12:37.703Z,1.35
2022-08-01T12:15:10.127Z,1.08
2022-08-01T12:17:40.773Z,1.13
2022-08-01T12:20:17.291Z,1.58
2022-08-01T12:22:44.636Z,1.48
2022-08-01T12:25:16.642Z,1.23
2022-08-01T12:27:47.605Z,1.75
2022-08-01T12:30:17.020Z,1.58
2022-08-01T12:32:45.953Z,1.60
2022-08-01T12:35:18.279Z,1.65
2022-08-01T12:37:47.977Z,1.58
2022-08-01T12:42:56.862Z,1.77
2022-08-01T12:45:27.642Z,3.33
2022-08-01T12:47:55.253Z,2.38
2022-08-01T12:50:24.856Z,2.83
2022-08-01T12:52:52.358Z,3.20
2022-08-01T12:55:21.629Z,2.63
2022-08-01T12:57:52.627Z,2.53
2022-08-01T13:08:22.180Z,1.40
2022-08-01T13:10:49.908Z,1.50
2022-08-01T13:13:28.460Z,1.38
2022-08-01T13:16:06.349Z,1.17
2022-08-01T13:18:34.336Z,1.23
2022-08-01T13:21:18.615Z,1.10
2022-08-01T13:32:29.932Z,2.85
2022-08-01T13:35:06.245Z,1.30
2022-08-01T13:37:33.021Z,0.98
2022-08-01T13:39:59.922Z,1.08
2022-08-01T13:42:26.627Z,1.13
2022-08-01T13:44:53.177Z,1.75
2022-08-01T13:47:19.764Z,2.25
2022-08-01T13:50:01.594Z,0.70
2022-08-01T13:52:29.064Z,0.90
2022-08-01T13:54:55.702Z,1.20
2022-08-01T13:57:22.855Z,0.93
2022-08-01T13:59:49.705Z,1.10
2022-08-01T14:02:16.359Z,1.05
2022-08-01T14:04:43.288Z,1.00
2022-08-01T14:07:14.701Z,0.85
2022-08-01T14:09:45.138Z,0.73
2022-08-01T14:12:29.228Z,1.55
2022-08-01T14:14:55.874Z,1.05
2022-08-01T14:17:22.524Z,0.70
2022-08-01T14:19:49.568Z,1.85
2022-08-01T14:22:16.134Z,0.85
2022-08-01T14:24:42.755Z,1.00
2022-08-01T14:27:09.822Z,0.77
2022-08-01T14:30:02.521Z,0.70
2022-08-01T14:32:28.455Z,0.80
2022-08-01T14:34:56.997Z,0.93
2022-08-01T14:37:27.919Z,0.80
2022-08-01T14:39:57.474Z,0.50
2022-08-01T14:42:26.169Z,0.50
2022-08-01T14:44:52.838Z,0.90
2022-08-01T14:47:22.074Z,0.80
2022-08-01T14:49:49.513Z,1.05
2022-08-01T14:52:16.248Z,0.63
2022-08-01T14:54:43.062Z,0.60
2022-08-01T14:57:09.860Z,1.85
2022-08-01T14:59:36.954Z,0.93
2022-08-01T15:02:03.666Z,0.75
2022-08-01T15:04:31.467Z,0.90
2022-08-01T15:06:58.172Z,0.88
2022-08-01T15:09:24.751Z,0.80
2022-08-01T15:11:51.362Z,0.70
2022-08-01T15:14:37.862Z,0.90
2022-08-01T15:17:04.611Z,0.60
2022-08-01T15:19:31.201Z,1.02
2022-08-01T15:21:57.829Z,0.70
2022-08-01T15:24:28.165Z,1.15
2022-08-01T15:26:54.750Z,0.90
2022-08-01T15:29:21.494Z,0.93
2022-08-01T15:31:48.066Z,0.90
2022-08-01T15:34:15.249Z,2.03
2022-08-01T15:36:43.752Z,0.40
2022-08-01T15:39:11.906Z,0.40
2022-08-01T15:41:38.654Z,0.63
2022-08-01T15:44:05.428Z,0.70
2022-08-01T15:46:32.012Z,0.70
2022-08-01T15:48:58.670Z,0.70
2022-08-01T15:51:25.306Z,0.85
2022-08-01T15:53:52.015Z,0.95
2022-08-01T15:56:18.580Z,0.70
2022-08-01T15:58:45.277Z,0.60
2022-08-01T16:01:11.878Z,0.70
2022-08-01T16:03:38.515Z,1.00
2022-08-01T16:06:05.192Z,0.80
2022-08-01T16:08:31.886Z,0.68
2022-08-01T16:10:58.496Z,0.80
2022-08-01T16:13:25.097Z,0.55
2022-08-01T16:15:51.690Z,0.63
2022-08-01T16:18:18.350Z,0.80
2022-08-01T16:20:46.076Z,1.00
2022-08-01T16:23:14.901Z,1.02
2022-08-01T16:25:41.650Z,1.15
2022-08-01T16:28:09.896Z,1.25
2022-08-01T16:30:37.276Z,0.95
2022-08-01T16:33:38.919Z,1.02
2022-08-01T16:35:57.499Z,1.10
2022-08-01T16:38:25.272Z,0.98
2022-08-01T16:40:52.548Z,0.93
2022-08-01T16:43:19.916Z,1.08
2022-08-01T16:45:46.707Z,1.17
2022-08-01T16:48:16.191Z,0.90
2022-08-01T16:50:43.379Z,1.25
2022-08-01T16:53:11.561Z,1.35
2022-08-01T16:55:49.197Z,1.30
2022-08-01T16:58:19.410Z,0.90
2022-08-01T17:00:56.930Z,1.00
2022-08-01T17:03:51.452Z,0.90
2022-08-01T17:06:11.588Z,0.90
2022-08-01T17:08:46.551Z,1.02
2022-08-01T17:13:40.515Z,0.43
2022-08-01T17:16:08.858Z,0.68
2022-08-01T17:18:35.563Z,0.75
2022-08-01T17:21:02.189Z,0.70
2022-08-01T17:23:28.916Z,1.02
2022-08-01T17:25:55.611Z,0.80
2022-08-01T17:28:23.205Z,0.63
2022-08-01T17:30:49.970Z,0.93
2022-08-01T17:33:16.726Z,0.77
2022-08-01T17:35:43.381Z,0.60
2022-08-01T17:38:10.099Z,0.88
2022-08-01T17:40:40.980Z,1.10
2022-08-01T17:43:08.271Z,0.80
2022-08-01T17:45:39.374Z,0.73
2022-08-01T17:48:19.058Z,0.68
2022-08-01T17:50:47.752Z,0.60
2022-08-01T17:53:16.145Z,0.90
2022-08-01T17:55:54.070Z,0.73
2022-08-01T18:01:10.401Z,0.73
2022-08-01T18:03:41.352Z,0.80
2022-08-01T18:06:09.242Z,0.43
2022-08-01T18:08:36.153Z,0.85
2022-08-01T18:11:02.890Z,0.70
2022-08-01T18:13:29.908Z,0.45
2022-08-01T18:15:57.098Z,0.50
2022-08-01T18:18:33.181Z,1.00
2022-08-01T18:21:01.639Z,0.80
2022-08-01T18:23:28.478Z,0.88
2022-08-01T18:25:55.126Z,0.60
2022-08-01T18:28:32.910Z,1.13
2022-08-01T18:31:03.511Z,0.80
2022-08-01T18:33:30.151Z,0.88
2022-08-01T18:36:01.871Z,1.05
2022-08-01T18:38:33.180Z,1.20
2022-08-01T18:41:00.928Z,1.00
2022-08-01T18:43:27.932Z,1.05
2022-08-01T18:45:57.259Z,1.05
2022-08-01T18:48:24.341Z,0.90
2022-08-01T18:50:51.008Z,0.93
2022-08-01T18:53:18.780Z,1.10
2022-08-01T18:55:45.489Z,1.00
2022-08-01T18:58:12.194Z,1.00
2022-08-01T19:00:39.901Z,0.93
2022-08-01T19:03:07.789Z,0.45
2022-08-01T19:05:35.083Z,1.00
2022-08-01T19:08:06.194Z,0.90
2022-08-01T19:10:36.456Z,0.80
2022-08-01T19:13:03.793Z,0.70
2022-08-01T19:15:30.596Z,0.98
2022-08-01T19:17:57.306Z,1.92
2022-08-01T19:20:24.038Z,0.75
2022-08-01T19:22:50.682Z,0.70
2022-08-01T19:25:17.883Z,0.63
2022-08-01T19:27:47.745Z,0.98
2022-08-01T19:30:15.396Z,0.73
2022-08-01T19:32:45.031Z,0.80
2022-08-01T19:35:14.003Z,0.70
2022-08-01T19:37:46.030Z,0.68
2022-08-01T19:40:27.194Z,0.85
2022-08-01T19:42:56.102Z,1.05
2022-08-01T19:45:23.003Z,0.88
2022-08-01T19:47:56.358Z,0.85
2022-08-01T19:50:26.411Z,0.60
2022-08-01T19:52:54.885Z,0.77
2022-08-01T19:55:24.094Z,0.73
2022-08-01T19:58:10.526Z,0.60
2022-08-01T20:00:40.142Z,1.02
2022-08-01T20:03:07.725Z,1.88
2022-08-01T20:05:36.487Z,0.55
2022-08-01T20:08:05.266Z,0.73
2022-08-01T20:10:32.272Z,0.90
2022-08-01T20:12:58.968Z,0.80
2022-08-01T20:15:25.817Z,1.50
2022-08-01T20:17:52.517Z,1.15
2022-08-01T20:20:19.125Z,0.75
2022-08-01T20:22:49.037Z,0.68
2022-08-01T20:25:18.258Z,0.80
2022-08-01T20:27:46.558Z,0.70
2022-08-01T20:30:13.538Z,0.70
2022-08-01T20:32:41.306Z,1.17
2022-08-01T20:35:08.745Z,0.65
2022-08-01T20:38:03.438Z,0.82
2022-08-01T20:40:27.777Z,0.73
2022-08-01T20:42:56.127Z,0.80
2022-08-01T20:45:24.901Z,0.73
2022-08-01T20:47:53.933Z,0.60
2022-08-01T20:50:53.089Z,0.52
2022-08-01T20:53:23.817Z,0.80
2022-08-01T20:55:59.399Z,0.70
2022-08-01T20:58:43.045Z,0.80
2022-08-01T21:01:12.121Z,0.90
2022-08-01T21:03:49.121Z,0.60
2022-08-01T21:06:21.203Z,0.82
2022-08-01T21:08:49.987Z,1.00
2022-08-01T21:11:20.863Z,0.65
2022-08-01T21:13:49.146Z,1.15
2022-08-01T21:16:22.532Z,0.93
2022-08-01T21:21:59.537Z,0.50
2022-08-01T21:24:32.559Z,0.70
2022-08-01T21:26:59.685Z,0.85
2022-08-01T21:29:26.957Z,1.00
2022-08-01T21:32:11.624Z,1.00
2022-08-01T21:34:39.815Z,0.50
2022-08-01T21:37:09.240Z,0.90
2022-08-01T21:39:37.549Z,1.70
2022-08-01T21:42:09.029Z,0.73
2022-08-01T21:44:39.330Z,0.95
2022-08-01T21:47:07.110Z,0.70
2022-08-01T21:49:40.205Z,1.00
2022-08-01T21:52:15.388Z,0.95
2022-08-01T21:55:05.472Z,1.35
2022-08-01T22:00:39.641Z,1.58
2022-08-01T22:05:51.026Z,1.65
2022-08-01T22:08:39.791Z,2.58
2022-08-01T22:11:11.864Z,0.90
2022-08-01T22:13:38.618Z,2.83
2022-08-01T22:16:06.550Z,2.30
2022-08-01T22:18:35.782Z,3.38
2022-08-01T22:21:03.691Z,2.40
2022-08-01T22:23:34.832Z,3.22
2022-08-01T22:26:05.380Z,2.60
2022-08-01T22:28:33.935Z,2.03
2022-08-01T22:31:00.923Z,1.65
2022-08-01T22:33:29.346Z,2.47
2022-08-01T22:35:56.947Z,2.42
2022-08-01T22:38:24.471Z,2.35
2022-08-01T22:41:12.545Z,2.78
2022-08-01T22:44:06.081Z,2.35
2022-08-01T22:47:00.318Z,2.88
2022-08-01T22:49:40.534Z,2.22
2022-08-01T22:52:17.698Z,2.55
2022-08-01T22:54:50.003Z,1.23
2022-08-01T22:57:29.220Z,1.85
2022-08-01T23:00:01.712Z,1.90
2022-08-01T23:02:30.798Z,1.70
2022-08-01T23:05:03.043Z,1.83
2022-08-01T23:07:34.500Z,1.95
2022-08-01T23:10:05.625Z,1.48
2022-08-01T23:12:32.883Z,1.73
2022-08-01T23:15:01.249Z,0.95
2022-08-01T23:17:30.467Z,1.83
2022-08-01T23:20:00.029Z,2.05
2022-08-01T23:22:31.513Z,1.67
2022-08-01T23:25:04.454Z,1.75
2022-08-01T23:28:03.303Z,1.83
2022-08-01T23:30:25.174Z,1.75
2022-08-01T23:32:51.742Z,1.48
2022-08-01T23:35:18.374Z,1.17
2022-08-01T23:37:45.034Z,1.42
2022-08-01T23:40:12.237Z,1.20
2022-08-01T23:42:39.021Z,1.20
2022-08-01T23:45:06.933Z,1.67
2022-08-01T23:47:33.599Z,2.17
2022-08-01T23:50:00.306Z,1.40
2022-08-01T23:52:32.473Z,1.40
2022-08-01T23:55:13.158Z,1.38
2022-08-01T23:57:42.353Z,1.30
